sensor_id;sensor_type;location;lat;lon;timestamp;temperature;humidity
11214;DHT22;5664;48.606;13.456;2022-09-12T00:02:18;17.50;99.90
11214;DHT22;5664;48.606;13.456;2022-09-12T00:04:44;17.50;99.90
11214;DHT22;5664;48.606;13.456;2022-09-12T00:07:09;17.50;99.90
11214;DHT22;5664;48.606;13.456;2022-09-12T00:09:35;17.50;99.90
11214;DHT22;5664;48.606;13.456;2022-09-12T00:12:00;17.50;99.90
11214;DHT22;5664;48.606;13.456;2022-09-12T00:14:26;17.50;99.90
11214;DHT22;5664;48.606;13.456;2022-09-12T00:16:51;17.50;99.90
11214;DHT22;5664;48.606;13.456;2022-09-12T00:19:17;17.50;99.90
11214;DHT22;5664;48.606;13.456;2022-09-12T00:21:43;17.50;99.90
11214;DHT22;5664;48.606;13.456;2022-09-12T00:24:09;17.50;99.90
11214;DHT22;5664;48.606;13.456;2022-09-12T00:26:35;17.50;99.90
11214;DHT22;5664;48.606;13.456;2022-09-12T00:29:00;17.40;99.90
11214;DHT22;5664;48.606;13.456;2022-09-12T00:31:26;17.50;99.90
11214;DHT22;5664;48.606;13.456;2022-09-12T00:33:52;17.60;99.90
11214;DHT22;5664;48.606;13.456;2022-09-12T00:36:20;17.90;99.90
11214;DHT22;5664;48.606;13.456;2022-09-12T00:38:46;18.20;99.90
11214;DHT22;5664;48.606;13.456;2022-09-12T00:41:14;18.50;99.90
11214;DHT22;5664;48.606;13.456;2022-09-12T00:43:41;18.70;99.90
11214;DHT22;5664;48.606;13.456;2022-09-12T00:46:15;19.00;99.90
11214;DHT22;5664;48.606;13.456;2022-09-12T00:48:43;19.20;99.90
11214;DHT22;5664;48.606;13.456;2022-09-12T00:51:10;19.40;99.90
11214;DHT22;5664;48.606;13.456;2022-09-12T00:53:36;19.60;99.90
11214;DHT22;5664;48.606;13.456;2022-09-12T00:56:02;19.80;99.90
11214;DHT22;5664;48.606;13.456;2022-09-12T00:58:29;19.90;99.90
11214;DHT22;5664;48.606;13.456;2022-09-12T01:00:55;20.00;99.80
11214;DHT22;5664;48.606;13.456;2022-09-12T01:03:21;20.20;99.30
11214;DHT22;5664;48.606;13.456;2022-09-12T01:08:32;20.30;98.10
11214;DHT22;5664;48.606;13.456;2022-09-12T01:10:58;20.30;97.60
11214;DHT22;5664;48.606;13.456;2022-09-12T01:13:23;20.40;97.30
11214;DHT22;5664;48.606;13.456;2022-09-12T01:15:50;20.40;97.00
11214;DHT22;5664;48.606;13.456;2022-09-12T01:23:36;20.50;96.50
11214;DHT22;5664;48.606;13.456;2022-09-12T01:31:15;20.50;96.10
11214;DHT22;5664;48.606;13.456;2022-09-12T01:41:33;20.60;95.30
11214;DHT22;5664;48.606;13.456;2022-09-12T01:44:26;20.60;95.10
11214;DHT22;5664;48.606;13.456;2022-09-12T01:54:47;20.70;94.80
11214;DHT22;5664;48.606;13.456;2022-09-12T01:57:18;20.60;94.70
11214;DHT22;5664;48.606;13.456;2022-09-12T01:59:46;20.60;94.70
11214;DHT22;5664;48.606;13.456;2022-09-12T02:02:24;20.60;94.60
11214;DHT22;5664;48.606;13.456;2022-09-12T02:07:56;20.50;94.50
11214;DHT22;5664;48.606;13.456;2022-09-12T02:10:28;20.50;94.50
11214;DHT22;5664;48.606;13.456;2022-09-12T02:12:55;20.50;94.40
11214;DHT22;5664;48.606;13.456;2022-09-12T02:15:23;20.50;94.20
11214;DHT22;5664;48.606;13.456;2022-09-12T02:17:49;20.50;94.20
11214;DHT22;5664;48.606;13.456;2022-09-12T02:20:19;20.50;94.10
11214;DHT22;5664;48.606;13.456;2022-09-12T02:22:47;20.50;94.10
11214;DHT22;5664;48.606;13.456;2022-09-12T02:25:14;20.40;94.10
11214;DHT22;5664;48.606;13.456;2022-09-12T02:27:47;20.40;94.10
11214;DHT22;5664;48.606;13.456;2022-09-12T02:30:13;20.40;94.10
11214;DHT22;5664;48.606;13.456;2022-09-12T02:32:54;20.40;94.00
11214;DHT22;5664;48.606;13.456;2022-09-12T02:37:59;20.40;93.90
11214;DHT22;5664;48.606;13.456;2022-09-12T02:40:26;20.40;93.90
11214;DHT22;5664;48.606;13.456;2022-09-12T02:42:52;20.40;93.90
11214;DHT22;5664;48.606;13.456;2022-09-12T02:45:17;20.40;93.80
11214;DHT22;5664;48.606;13.456;2022-09-12T02:47:45;20.40;93.90
11214;DHT22;5664;48.606;13.456;2022-09-12T02:50:12;20.40;93.90
11214;DHT22;5664;48.606;13.456;2022-09-12T02:52:38;20.40;93.90
11214;DHT22;5664;48.606;13.456;2022-09-12T02:55:04;20.40;93.90
11214;DHT22;5664;48.606;13.456;2022-09-12T02:57:30;20.40;93.90
11214;DHT22;5664;48.606;13.456;2022-09-12T02:59:56;20.40;94.00
11214;DHT22;5664;48.606;13.456;2022-09-12T03:02:29;20.40;94.00
11214;DHT22;5664;48.606;13.456;2022-09-12T03:05:16;20.40;94.10
11214;DHT22;5664;48.606;13.456;2022-09-12T03:08:07;20.40;94.00
11214;DHT22;5664;48.606;13.456;2022-09-12T03:13:07;20.40;94.10
11214;DHT22;5664;48.606;13.456;2022-09-12T03:15:41;20.40;94.10
11214;DHT22;5664;48.606;13.456;2022-09-12T03:18:19;20.40;94.20
11214;DHT22;5664;48.606;13.456;2022-09-12T03:26:00;20.40;94.00
11214;DHT22;5664;48.606;13.456;2022-09-12T03:28:27;20.40;94.20
11214;DHT22;5664;48.606;13.456;2022-09-12T03:30:53;20.40;94.20
11214;DHT22;5664;48.606;13.456;2022-09-12T03:33:21;20.40;94.30
11214;DHT22;5664;48.606;13.456;2022-09-12T03:35:47;20.40;94.40
11214;DHT22;5664;48.606;13.456;2022-09-12T03:38:13;20.40;94.50
11214;DHT22;5664;48.606;13.456;2022-09-12T03:40:39;20.40;94.50
11214;DHT22;5664;48.606;13.456;2022-09-12T03:43:05;20.30;94.50
11214;DHT22;5664;48.606;13.456;2022-09-12T03:45:32;20.40;94.50
11214;DHT22;5664;48.606;13.456;2022-09-12T03:47:58;20.30;94.50
11214;DHT22;5664;48.606;13.456;2022-09-12T03:50:23;20.30;94.50
11214;DHT22;5664;48.606;13.456;2022-09-12T03:52:48;20.30;94.50
11214;DHT22;5664;48.606;13.456;2022-09-12T03:55:14;20.30;94.50
11214;DHT22;5664;48.606;13.456;2022-09-12T03:57:40;20.30;94.50
11214;DHT22;5664;48.606;13.456;2022-09-12T04:00:06;20.30;94.50
11214;DHT22;5664;48.606;13.456;2022-09-12T04:02:33;20.40;94.60
11214;DHT22;5664;48.606;13.456;2022-09-12T04:04:58;20.40;94.60
11214;DHT22;5664;48.606;13.456;2022-09-12T04:07:24;20.40;94.60
11214;DHT22;5664;48.606;13.456;2022-09-12T04:09:49;20.30;94.60
11214;DHT22;5664;48.606;13.456;2022-09-12T04:12:15;20.40;94.70
11214;DHT22;5664;48.606;13.456;2022-09-12T04:14:40;20.40;94.90
11214;DHT22;5664;48.606;13.456;2022-09-12T04:17:06;20.90;93.70
11214;DHT22;5664;48.606;13.456;2022-09-12T04:19:32;21.30;92.20
11214;DHT22;5664;48.606;13.456;2022-09-12T04:21:57;21.70;90.80
11214;DHT22;5664;48.606;13.456;2022-09-12T04:24:23;22.00;88.60
11214;DHT22;5664;48.606;13.456;2022-09-12T04:26:48;22.40;85.70
11214;DHT22;5664;48.606;13.456;2022-09-12T04:29:14;22.70;83.20
11214;DHT22;5664;48.606;13.456;2022-09-12T04:31:39;22.90;80.80
11214;DHT22;5664;48.606;13.456;2022-09-12T04:34:05;23.20;79.00
11214;DHT22;5664;48.606;13.456;2022-09-12T04:36:31;23.30;77.70
11214;DHT22;5664;48.606;13.456;2022-09-12T04:38:57;23.40;77.00
11214;DHT22;5664;48.606;13.456;2022-09-12T04:41:25;23.40;76.60
11214;DHT22;5664;48.606;13.456;2022-09-12T04:43:53;23.50;75.70
11214;DHT22;5664;48.606;13.456;2022-09-12T04:46:18;23.60;75.30
11214;DHT22;5664;48.606;13.456;2022-09-12T04:48:44;23.60;75.00
11214;DHT22;5664;48.606;13.456;2022-09-12T04:51:11;23.60;74.70
11214;DHT22;5664;48.606;13.456;2022-09-12T04:53:38;23.60;74.70
11214;DHT22;5664;48.606;13.456;2022-09-12T04:56:04;23.60;74.70
11214;DHT22;5664;48.606;13.456;2022-09-12T04:58:30;23.60;74.60
11214;DHT22;5664;48.606;13.456;2022-09-12T05:00:56;23.60;75.50
11214;DHT22;5664;48.606;13.456;2022-09-12T05:03:27;23.60;74.60
11214;DHT22;5664;48.606;13.456;2022-09-12T05:05:53;23.50;74.40
11214;DHT22;5664;48.606;13.456;2022-09-12T05:08:18;23.60;74.50
11214;DHT22;5664;48.606;13.456;2022-09-12T05:10:43;23.60;74.50
11214;DHT22;5664;48.606;13.456;2022-09-12T05:13:09;23.50;74.30
11214;DHT22;5664;48.606;13.456;2022-09-12T05:15:34;23.50;74.30
11214;DHT22;5664;48.606;13.456;2022-09-12T05:18:00;23.60;74.40
11214;DHT22;5664;48.606;13.456;2022-09-12T05:20:25;23.50;74.20
11214;DHT22;5664;48.606;13.456;2022-09-12T05:22:51;23.60;74.30
11214;DHT22;5664;48.606;13.456;2022-09-12T05:25:16;23.50;74.00
11214;DHT22;5664;48.606;13.456;2022-09-12T05:27:42;23.60;74.10
11214;DHT22;5664;48.606;13.456;2022-09-12T05:30:07;23.50;73.90
11214;DHT22;5664;48.606;13.456;2022-09-12T05:32:33;23.50;73.90
11214;DHT22;5664;48.606;13.456;2022-09-12T05:34:59;23.50;73.90
11214;DHT22;5664;48.606;13.456;2022-09-12T05:37:25;23.50;74.00
11214;DHT22;5664;48.606;13.456;2022-09-12T05:39:50;23.50;73.90
11214;DHT22;5664;48.606;13.456;2022-09-12T05:42:17;23.50;73.90
11214;DHT22;5664;48.606;13.456;2022-09-12T05:44:42;23.50;73.80
11214;DHT22;5664;48.606;13.456;2022-09-12T05:47:09;23.50;73.70
11214;DHT22;5664;48.606;13.456;2022-09-12T05:49:35;23.50;73.60
11214;DHT22;5664;48.606;13.456;2022-09-12T05:52:01;23.50;73.60
11214;DHT22;5664;48.606;13.456;2022-09-12T05:54:27;23.50;73.50
11214;DHT22;5664;48.606;13.456;2022-09-12T05:56:52;23.50;73.30
11214;DHT22;5664;48.606;13.456;2022-09-12T05:59:19;23.40;73.40
11214;DHT22;5664;48.606;13.456;2022-09-12T06:01:45;23.40;73.70
11214;DHT22;5664;48.606;13.456;2022-09-12T06:04:10;23.40;73.60
11214;DHT22;5664;48.606;13.456;2022-09-12T06:06:37;23.40;73.70
11214;DHT22;5664;48.606;13.456;2022-09-12T06:09:03;23.50;73.60
11214;DHT22;5664;48.606;13.456;2022-09-12T06:11:30;23.50;73.40
11214;DHT22;5664;48.606;13.456;2022-09-12T06:13:56;23.50;73.20
11214;DHT22;5664;48.606;13.456;2022-09-12T06:16:23;23.60;73.20
11214;DHT22;5664;48.606;13.456;2022-09-12T06:18:59;23.60;73.40
11214;DHT22;5664;48.606;13.456;2022-09-12T06:21:25;23.80;73.30
11214;DHT22;5664;48.606;13.456;2022-09-12T06:23:52;23.90;73.00
11214;DHT22;5664;48.606;13.456;2022-09-12T06:26:18;24.00;72.80
11214;DHT22;5664;48.606;13.456;2022-09-12T06:28:47;24.20;72.70
11214;DHT22;5664;48.606;13.456;2022-09-12T06:31:17;24.20;72.40
11214;DHT22;5664;48.606;13.456;2022-09-12T06:33:44;24.30;72.20
11214;DHT22;5664;48.606;13.456;2022-09-12T06:36:20;24.40;72.20
11214;DHT22;5664;48.606;13.456;2022-09-12T06:38:46;24.40;72.40
11214;DHT22;5664;48.606;13.456;2022-09-12T06:41:13;24.40;72.70
11214;DHT22;5664;48.606;13.456;2022-09-12T06:43:39;24.50;72.90
11214;DHT22;5664;48.606;13.456;2022-09-12T06:46:05;24.50;72.90
11214;DHT22;5664;48.606;13.456;2022-09-12T06:48:31;24.50;73.10
11214;DHT22;5664;48.606;13.456;2022-09-12T06:50:58;24.50;73.40
11214;DHT22;5664;48.606;13.456;2022-09-12T06:53:24;24.50;73.80
11214;DHT22;5664;48.606;13.456;2022-09-12T06:55:54;24.40;73.90
11214;DHT22;5664;48.606;13.456;2022-09-12T06:58:19;24.40;74.30
11214;DHT22;5664;48.606;13.456;2022-09-12T07:00:45;24.30;74.60
11214;DHT22;5664;48.606;13.456;2022-09-12T07:03:10;24.20;75.20
11214;DHT22;5664;48.606;13.456;2022-09-12T07:05:36;24.10;75.90
11214;DHT22;5664;48.606;13.456;2022-09-12T07:08:01;23.90;76.50
11214;DHT22;5664;48.606;13.456;2022-09-12T07:10:27;23.70;77.30
11214;DHT22;5664;48.606;13.456;2022-09-12T07:12:53;23.60;78.30
11214;DHT22;5664;48.606;13.456;2022-09-12T07:15:19;23.40;79.20
11214;DHT22;5664;48.606;13.456;2022-09-12T07:17:44;23.30;80.30
11214;DHT22;5664;48.606;13.456;2022-09-12T07:20:10;23.10;81.20
11214;DHT22;5664;48.606;13.456;2022-09-12T07:22:36;23.00;82.40
11214;DHT22;5664;48.606;13.456;2022-09-12T07:25:01;22.80;83.60
11214;DHT22;5664;48.606;13.456;2022-09-12T07:27:27;22.60;84.80
11214;DHT22;5664;48.606;13.456;2022-09-12T07:29:52;22.50;86.10
11214;DHT22;5664;48.606;13.456;2022-09-12T07:32:18;22.40;87.40
11214;DHT22;5664;48.606;13.456;2022-09-12T07:34:44;22.70;89.00
11214;DHT22;5664;48.606;13.456;2022-09-12T07:37:09;22.10;89.90
11214;DHT22;5664;48.606;13.456;2022-09-12T07:39:35;22.00;90.50
11214;DHT22;5664;48.606;13.456;2022-09-12T07:42:00;21.90;91.10
11214;DHT22;5664;48.606;13.456;2022-09-12T07:44:26;21.80;91.70
11214;DHT22;5664;48.606;13.456;2022-09-12T07:46:51;21.70;92.20
11214;DHT22;5664;48.606;13.456;2022-09-12T07:49:16;21.60;92.80
11214;DHT22;5664;48.606;13.456;2022-09-12T07:51:42;21.50;93.30
11214;DHT22;5664;48.606;13.456;2022-09-12T07:54:08;21.40;93.90
11214;DHT22;5664;48.606;13.456;2022-09-12T07:56:33;21.30;94.30
11214;DHT22;5664;48.606;13.456;2022-09-12T07:58:59;21.20;94.80
11214;DHT22;5664;48.606;13.456;2022-09-12T08:01:24;21.10;95.20
11214;DHT22;5664;48.606;13.456;2022-09-12T08:03:54;21.10;95.70
11214;DHT22;5664;48.606;13.456;2022-09-12T08:06:21;21.00;96.10
11214;DHT22;5664;48.606;13.456;2022-09-12T08:08:50;20.90;96.50
11214;DHT22;5664;48.606;13.456;2022-09-12T08:11:17;20.90;96.90
11214;DHT22;5664;48.606;13.456;2022-09-12T08:13:43;20.80;97.20
11214;DHT22;5664;48.606;13.456;2022-09-12T08:16:15;20.70;97.50
11214;DHT22;5664;48.606;13.456;2022-09-12T08:18:42;20.70;97.90
11214;DHT22;5664;48.606;13.456;2022-09-12T08:21:12;20.60;98.20
11214;DHT22;5664;48.606;13.456;2022-09-12T08:23:38;20.50;98.50
11214;DHT22;5664;48.606;13.456;2022-09-12T08:26:04;20.50;98.80
11214;DHT22;5664;48.606;13.456;2022-09-12T08:28:30;20.40;99.00
11214;DHT22;5664;48.606;13.456;2022-09-12T08:31:03;20.40;99.30
11214;DHT22;5664;48.606;13.456;2022-09-12T08:33:29;20.40;99.60
11214;DHT22;5664;48.606;13.456;2022-09-12T08:36:02;20.30;99.80
11214;DHT22;5664;48.606;13.456;2022-09-12T08:38:28;20.30;99.90
11214;DHT22;5664;48.606;13.456;2022-09-12T08:40:59;20.30;99.90
11214;DHT22;5664;48.606;13.456;2022-09-12T08:45:58;20.20;99.90
11214;DHT22;5664;48.606;13.456;2022-09-12T08:48:26;20.20;99.90
11214;DHT22;5664;48.606;13.456;2022-09-12T08:50:52;20.20;99.90
11214;DHT22;5664;48.606;13.456;2022-09-12T08:53:19;20.20;99.90
11214;DHT22;5664;48.606;13.456;2022-09-12T08:55:49;20.10;99.90
11214;DHT22;5664;48.606;13.456;2022-09-12T08:58:16;20.10;99.90
11214;DHT22;5664;48.606;13.456;2022-09-12T09:00:53;20.10;99.90
11214;DHT22;5664;48.606;13.456;2022-09-12T09:03:29;20.10;99.90
11214;DHT22;5664;48.606;13.456;2022-09-12T09:08:55;20.10;99.90
11214;DHT22;5664;48.606;13.456;2022-09-12T09:11:40;20.00;99.90
11214;DHT22;5664;48.606;13.456;2022-09-12T09:16:52;20.00;99.90
11214;DHT22;5664;48.606;13.456;2022-09-12T09:19:21;20.00;99.90
11214;DHT22;5664;48.606;13.456;2022-09-12T09:24:15;19.90;99.90
11214;DHT22;5664;48.606;13.456;2022-09-12T09:29:13;19.90;99.90
11214;DHT22;5664;48.606;13.456;2022-09-12T09:31:39;19.90;99.90
11214;DHT22;5664;48.606;13.456;2022-09-12T09:34:11;19.90;99.90
11214;DHT22;5664;48.606;13.456;2022-09-12T09:36:45;19.90;99.90
11214;DHT22;5664;48.606;13.456;2022-09-12T09:39:33;19.80;99.90
11214;DHT22;5664;48.606;13.456;2022-09-12T09:44:37;19.80;99.90
11214;DHT22;5664;48.606;13.456;2022-09-12T09:47:03;19.80;99.90
11214;DHT22;5664;48.606;13.456;2022-09-12T09:49:30;19.80;99.90
11214;DHT22;5664;48.606;13.456;2022-09-12T09:51:56;19.80;99.90
11214;DHT22;5664;48.606;13.456;2022-09-12T09:54:24;19.80;99.90
11214;DHT22;5664;48.606;13.456;2022-09-12T09:56:50;19.80;99.90
11214;DHT22;5664;48.606;13.456;2022-09-12T09:59:17;19.80;99.90
11214;DHT22;5664;48.606;13.456;2022-09-12T10:01:46;19.70;99.90
11214;DHT22;5664;48.606;13.456;2022-09-12T10:06:44;19.70;99.90
11214;DHT22;5664;48.606;13.456;2022-09-12T10:11:39;19.70;99.90
11214;DHT22;5664;48.606;13.456;2022-09-12T10:14:04;19.70;99.90
11214;DHT22;5664;48.606;13.456;2022-09-12T10:16:50;19.70;99.90
11214;DHT22;5664;48.606;13.456;2022-09-12T10:19:19;19.70;99.90
11214;DHT22;5664;48.606;13.456;2022-09-12T10:21:49;19.70;99.90
11214;DHT22;5664;48.606;13.456;2022-09-12T10:26:41;19.70;99.90
11214;DHT22;5664;48.606;13.456;2022-09-12T10:29:11;19.70;99.90
11214;DHT22;5664;48.606;13.456;2022-09-12T10:31:42;19.70;99.90
11214;DHT22;5664;48.606;13.456;2022-09-12T10:34:18;19.70;99.90
11214;DHT22;5664;48.606;13.456;2022-09-12T10:36:44;19.60;99.90
11214;DHT22;5664;48.606;13.456;2022-09-12T10:39:11;19.70;99.90
11214;DHT22;5664;48.606;13.456;2022-09-12T10:41:41;19.70;99.90
11214;DHT22;5664;48.606;13.456;2022-09-12T10:44:07;19.70;99.90
11214;DHT22;5664;48.606;13.456;2022-09-12T10:46:34;19.70;99.90
11214;DHT22;5664;48.606;13.456;2022-09-12T10:49:13;19.70;99.90
11214;DHT22;5664;48.606;13.456;2022-09-12T10:51:39;19.70;99.90
11214;DHT22;5664;48.606;13.456;2022-09-12T10:54:07;19.60;99.90
11214;DHT22;5664;48.606;13.456;2022-09-12T10:56:38;19.70;99.90
11214;DHT22;5664;48.606;13.456;2022-09-12T11:12:14;19.60;99.90
11214;DHT22;5664;48.606;13.456;2022-09-12T11:17:18;19.60;99.90
11214;DHT22;5664;48.606;13.456;2022-09-12T11:20:05;19.60;99.90
11214;DHT22;5664;48.606;13.456;2022-09-12T11:22:35;19.60;99.90
11214;DHT22;5664;48.606;13.456;2022-09-12T11:25:21;19.60;99.90
11214;DHT22;5664;48.606;13.456;2022-09-12T11:30:13;19.60;99.90
11214;DHT22;5664;48.606;13.456;2022-09-12T11:35:29;19.60;99.90
11214;DHT22;5664;48.606;13.456;2022-09-12T11:43:01;19.60;99.90
11214;DHT22;5664;48.606;13.456;2022-09-12T11:45:31;19.60;99.90
11214;DHT22;5664;48.606;13.456;2022-09-12T11:48:00;19.60;99.90
11214;DHT22;5664;48.606;13.456;2022-09-12T11:50:28;19.60;99.90
11214;DHT22;5664;48.606;13.456;2022-09-12T11:52:56;19.60;99.90
11214;DHT22;5664;48.606;13.456;2022-09-12T11:55:24;19.60;99.90
11214;DHT22;5664;48.606;13.456;2022-09-12T11:57:53;19.60;99.90
11214;DHT22;5664;48.606;13.456;2022-09-12T12:00:21;19.60;99.90
11214;DHT22;5664;48.606;13.456;2022-09-12T12:05:18;19.60;99.90
11214;DHT22;5664;48.606;13.456;2022-09-12T12:07:55;19.50;99.90
11214;DHT22;5664;48.606;13.456;2022-09-12T12:10:22;19.60;99.90
11214;DHT22;5664;48.606;13.456;2022-09-12T12:12:48;19.60;99.90
11214;DHT22;5664;48.606;13.456;2022-09-12T12:15:15;19.60;99.90
11214;DHT22;5664;48.606;13.456;2022-09-12T12:17:41;19.60;99.90
11214;DHT22;5664;48.606;13.456;2022-09-12T12:20:12;19.60;99.90
11214;DHT22;5664;48.606;13.456;2022-09-12T12:22:49;19.50;99.90
11214;DHT22;5664;48.606;13.456;2022-09-12T12:38:25;19.50;99.90
11214;DHT22;5664;48.606;13.456;2022-09-12T12:40:51;19.50;99.90
11214;DHT22;5664;48.606;13.456;2022-09-12T12:43:27;19.50;99.90
11214;DHT22;5664;48.606;13.456;2022-09-12T12:46:00;19.50;99.90
11214;DHT22;5664;48.606;13.456;2022-09-12T12:48:25;19.50;99.90
11214;DHT22;5664;48.606;13.456;2022-09-12T12:50:53;19.50;99.90
11214;DHT22;5664;48.606;13.456;2022-09-12T12:53:25;19.50;99.90
11214;DHT22;5664;48.606;13.456;2022-09-12T12:55:52;19.50;99.90
11214;DHT22;5664;48.606;13.456;2022-09-12T13:00:45;19.50;99.90
11214;DHT22;5664;48.606;13.456;2022-09-12T13:03:21;19.50;99.90
11214;DHT22;5664;48.606;13.456;2022-09-12T13:05:50;19.50;99.90
11214;DHT22;5664;48.606;13.456;2022-09-12T13:13:24;19.50;99.90
11214;DHT22;5664;48.606;13.456;2022-09-12T13:15:51;19.50;99.90
11214;DHT22;5664;48.606;13.456;2022-09-12T13:18:23;19.50;99.90
11214;DHT22;5664;48.606;13.456;2022-09-12T13:23:32;19.50;99.90
11214;DHT22;5664;48.606;13.456;2022-09-12T13:25:58;19.50;99.90
11214;DHT22;5664;48.606;13.456;2022-09-12T13:28:28;19.50;99.90
11214;DHT22;5664;48.606;13.456;2022-09-12T13:33:26;19.50;99.90
11214;DHT22;5664;48.606;13.456;2022-09-12T13:40:55;19.50;99.90
11214;DHT22;5664;48.606;13.456;2022-09-12T13:43:35;19.50;99.90
11214;DHT22;5664;48.606;13.456;2022-09-12T13:46:01;19.50;99.90
11214;DHT22;5664;48.606;13.456;2022-09-12T13:48:27;19.50;99.90
11214;DHT22;5664;48.606;13.456;2022-09-12T13:50:53;19.50;99.90
11214;DHT22;5664;48.606;13.456;2022-09-12T13:53:24;19.50;99.90
11214;DHT22;5664;48.606;13.456;2022-09-12T13:55:52;19.50;99.90
11214;DHT22;5664;48.606;13.456;2022-09-12T13:58:23;19.50;99.90
11214;DHT22;5664;48.606;13.456;2022-09-12T14:03:51;19.50;99.90
11214;DHT22;5664;48.606;13.456;2022-09-12T14:06:40;19.50;99.90
11214;DHT22;5664;48.606;13.456;2022-09-12T14:09:29;19.50;99.90
11214;DHT22;5664;48.606;13.456;2022-09-12T14:11:56;19.50;99.90
11214;DHT22;5664;48.606;13.456;2022-09-12T14:14:27;19.50;99.90
11214;DHT22;5664;48.606;13.456;2022-09-12T14:16:55;19.50;99.90
11214;DHT22;5664;48.606;13.456;2022-09-12T14:19:22;19.50;99.90
11214;DHT22;5664;48.606;13.456;2022-09-12T14:21:53;19.50;99.90
11214;DHT22;5664;48.606;13.456;2022-09-12T14:24:18;19.50;99.90
11214;DHT22;5664;48.606;13.456;2022-09-12T14:26:47;19.40;99.90
11214;DHT22;5664;48.606;13.456;2022-09-12T14:29:14;19.50;99.90
11214;DHT22;5664;48.606;13.456;2022-09-12T14:31:41;19.40;99.90
11214;DHT22;5664;48.606;13.456;2022-09-12T14:34:12;19.50;99.90
11214;DHT22;5664;48.606;13.456;2022-09-12T14:41:43;19.50;99.90
11214;DHT22;5664;48.606;13.456;2022-09-12T14:44:18;19.50;99.90
11214;DHT22;5664;48.606;13.456;2022-09-12T14:46:44;19.50;99.90
11214;DHT22;5664;48.606;13.456;2022-09-12T14:49:20;19.50;99.90
11214;DHT22;5664;48.606;13.456;2022-09-12T14:51:51;19.40;99.90
11214;DHT22;5664;48.606;13.456;2022-09-12T14:56:53;19.40;99.90
11214;DHT22;5664;48.606;13.456;2022-09-12T15:02:17;19.40;99.90
11214;DHT22;5664;48.606;13.456;2022-09-12T15:04:44;19.40;99.90
11214;DHT22;5664;48.606;13.456;2022-09-12T15:07:27;19.40;99.90
11214;DHT22;5664;48.606;13.456;2022-09-12T15:09:54;19.40;99.90
11214;DHT22;5664;48.606;13.456;2022-09-12T15:12:21;19.50;99.90
11214;DHT22;5664;48.606;13.456;2022-09-12T15:14:46;19.50;99.90
11214;DHT22;5664;48.606;13.456;2022-09-12T15:17:12;19.50;99.90
11214;DHT22;5664;48.606;13.456;2022-09-12T15:19:37;19.50;99.90
11214;DHT22;5664;48.606;13.456;2022-09-12T15:22:03;19.50;99.90
11214;DHT22;5664;48.606;13.456;2022-09-12T15:24:28;19.50;99.90
11214;DHT22;5664;48.606;13.456;2022-09-12T15:26:54;19.50;99.90
11214;DHT22;5664;48.606;13.456;2022-09-12T15:29:19;19.50;99.90
11214;DHT22;5664;48.606;13.456;2022-09-12T15:31:45;19.50;99.90
11214;DHT22;5664;48.606;13.456;2022-09-12T15:34:11;19.50;99.90
11214;DHT22;5664;48.606;13.456;2022-09-12T15:36:36;19.50;99.90
11214;DHT22;5664;48.606;13.456;2022-09-12T15:39:02;19.50;99.90
11214;DHT22;5664;48.606;13.456;2022-09-12T15:41:31;19.50;99.90
11214;DHT22;5664;48.606;13.456;2022-09-12T15:43:57;19.50;99.90
11214;DHT22;5664;48.606;13.456;2022-09-12T15:46:22;19.50;99.90
11214;DHT22;5664;48.606;13.456;2022-09-12T15:48:48;19.40;99.90
11214;DHT22;5664;48.606;13.456;2022-09-12T15:51:15;19.40;99.90
11214;DHT22;5664;48.606;13.456;2022-09-12T15:53:41;19.40;99.90
11214;DHT22;5664;48.606;13.456;2022-09-12T15:56:07;19.40;99.90
11214;DHT22;5664;48.606;13.456;2022-09-12T15:58:33;19.40;99.90
11214;DHT22;5664;48.606;13.456;2022-09-12T16:00:58;19.40;99.90
11214;DHT22;5664;48.606;13.456;2022-09-12T16:03:25;19.40;99.90
11214;DHT22;5664;48.606;13.456;2022-09-12T16:05:59;19.30;99.90
11214;DHT22;5664;48.606;13.456;2022-09-12T16:08:25;19.30;99.90
11214;DHT22;5664;48.606;13.456;2022-09-12T16:10:54;19.30;99.90
11214;DHT22;5664;48.606;13.456;2022-09-12T16:13:21;19.30;99.90
11214;DHT22;5664;48.606;13.456;2022-09-12T16:15:47;19.30;99.90
11214;DHT22;5664;48.606;13.456;2022-09-12T16:18:12;19.30;99.90
11214;DHT22;5664;48.606;13.456;2022-09-12T16:20:38;19.30;99.90
11214;DHT22;5664;48.606;13.456;2022-09-12T16:23:04;19.30;99.90
11214;DHT22;5664;48.606;13.456;2022-09-12T16:25:30;19.30;99.90
11214;DHT22;5664;48.606;13.456;2022-09-12T16:27:56;19.30;99.90
11214;DHT22;5664;48.606;13.456;2022-09-12T16:30:21;19.30;99.90
11214;DHT22;5664;48.606;13.456;2022-09-12T16:32:46;19.30;99.90
11214;DHT22;5664;48.606;13.456;2022-09-12T16:35:12;19.30;99.90
11214;DHT22;5664;48.606;13.456;2022-09-12T16:37:37;19.30;99.90
11214;DHT22;5664;48.606;13.456;2022-09-12T16:40:03;19.30;99.90
11214;DHT22;5664;48.606;13.456;2022-09-12T16:42:29;19.30;99.90
11214;DHT22;5664;48.606;13.456;2022-09-12T16:44:55;19.30;99.90
11214;DHT22;5664;48.606;13.456;2022-09-12T16:47:20;19.30;99.90
11214;DHT22;5664;48.606;13.456;2022-09-12T16:49:46;19.20;99.90
11214;DHT22;5664;48.606;13.456;2022-09-12T16:52:11;19.20;99.90
11214;DHT22;5664;48.606;13.456;2022-09-12T16:54:41;19.30;99.90
11214;DHT22;5664;48.606;13.456;2022-09-12T16:57:06;19.20;99.90
11214;DHT22;5664;48.606;13.456;2022-09-12T16:59:32;19.20;99.90
11214;DHT22;5664;48.606;13.456;2022-09-12T17:01:57;19.20;99.90
11214;DHT22;5664;48.606;13.456;2022-09-12T17:04:23;19.20;99.90
11214;DHT22;5664;48.606;13.456;2022-09-12T17:06:48;19.20;99.90
11214;DHT22;5664;48.606;13.456;2022-09-12T17:09:14;19.20;99.90
11214;DHT22;5664;48.606;13.456;2022-09-12T17:11:42;19.20;99.90
11214;DHT22;5664;48.606;13.456;2022-09-12T17:14:09;19.20;99.90
11214;DHT22;5664;48.606;13.456;2022-09-12T17:16:36;19.20;99.90
11214;DHT22;5664;48.606;13.456;2022-09-12T17:19:02;19.20;99.90
11214;DHT22;5664;48.606;13.456;2022-09-12T17:21:27;19.20;99.90
11214;DHT22;5664;48.606;13.456;2022-09-12T17:23:53;19.20;99.90
11214;DHT22;5664;48.606;13.456;2022-09-12T17:26:19;19.20;99.90
11214;DHT22;5664;48.606;13.456;2022-09-12T17:28:45;19.20;99.90
11214;DHT22;5664;48.606;13.456;2022-09-12T17:31:11;19.20;99.90
11214;DHT22;5664;48.606;13.456;2022-09-12T17:33:36;19.20;99.90
11214;DHT22;5664;48.606;13.456;2022-09-12T17:36:09;19.20;99.90
11214;DHT22;5664;48.606;13.456;2022-09-12T17:38:36;19.20;99.90
11214;DHT22;5664;48.606;13.456;2022-09-12T17:41:09;19.20;99.90
11214;DHT22;5664;48.606;13.456;2022-09-12T17:43:35;19.20;99.90
11214;DHT22;5664;48.606;13.456;2022-09-12T17:46:02;19.20;99.90
11214;DHT22;5664;48.606;13.456;2022-09-12T17:48:28;19.20;99.90
11214;DHT22;5664;48.606;13.456;2022-09-12T17:50:53;19.20;99.90
11214;DHT22;5664;48.606;13.456;2022-09-12T17:53:19;19.20;99.90